Time;durP1;ratioP1;P1;durP2;ratioP2;P2;SDS_P1;SDS_P2;PMS_P1;PMS_P2;Temp;Humidity;BMP_temperature;BMP_pressure;BME280_temperature;BME280_humidity;BME280_pressure;Samples;Min_cycle;Max_cycle;Signal;HPM_P1;HPM_P2
2022/04/07 00:01:17;;;;;;;4.05;2.10;;;22.70;41.40;;;;;;5023350;28;20097;-43
2022/04/07 00:03:43;;;;;;;3.38;1.83;;;22.80;41.20;;;;;;5024054;28;20120;-42
2022/04/07 00:06:09;;;;;;;3.63;2.00;;;22.80;41.20;;;;;;5023353;28;20131;-43
2022/04/07 00:08:39;;;;;;;3.53;1.90;;;22.80;41.10;;;;;;5024650;28;20040;-42
2022/04/07 00:11:05;;;;;;;4.15;2.28;;;22.70;41.30;;;;;;5023742;28;20021;-42
2022/04/07 00:13:31;;;;;;;3.35;1.67;;;22.70;41.30;;;;;;5024932;28;20520;-42
2022/04/07 00:15:59;;;;;;;3.53;2.00;;;22.70;41.20;;;;;;5024947;28;20103;-43
2022/04/07 00:18:25;;;;;;;4.82;1.90;;;22.70;41.10;;;;;;5024960;28;20029;-42
2022/04/07 00:20:52;;;;;;;3.78;1.98;;;22.70;41.20;;;;;;5024730;28;20025;-42
2022/04/07 00:23:19;;;;;;;3.28;1.60;;;22.70;41.00;;;;;;5024443;28;20025;-43
2022/04/07 00:25:44;;;;;;;3.95;1.95;;;22.70;41.10;;;;;;5023122;28;20622;-42
2022/04/07 00:28:10;;;;;;;4.13;1.90;;;22.70;41.10;;;;;;5024580;28;20071;-42
2022/04/07 00:30:39;;;;;;;3.90;1.73;;;22.70;41.70;;;;;;5024346;28;20083;-42
2022/04/07 00:33:05;;;;;;;3.97;2.00;;;22.70;41.10;;;;;;5024608;28;20087;-42
2022/04/07 00:35:32;;;;;;;3.25;1.70;;;22.70;41.10;;;;;;5024743;28;20041;-42
2022/04/07 00:37:57;;;;;;;4.25;2.17;;;22.70;41.00;;;;;;5024522;28;20032;-42
2022/04/07 00:40:23;;;;;;;3.20;1.70;;;22.70;41.20;;;;;;5024464;28;20037;-42
2022/04/07 00:42:52;;;;;;;2.90;1.60;;;22.70;41.10;;;;;;5024534;28;20053;-43
2022/04/07 00:45:20;;;;;;;3.40;1.58;;;22.70;41.10;;;;;;5024708;28;20048;-43
2022/04/07 00:47:49;;;;;;;3.60;1.50;;;22.70;41.10;;;;;;5024933;28;20057;-43
2022/04/07 00:50:17;;;;;;;3.53;1.83;;;22.70;41.00;;;;;;5024669;28;20025;-42
2022/04/07 00:53:02;;;;;;;3.88;1.90;;;22.60;41.00;;;;;;5024153;28;20022;-43
2022/04/07 00:55:28;;;;;;;3.85;1.75;;;22.70;41.10;;;;;;5024447;28;20025;-43
2022/04/07 00:57:54;;;;;;;3.20;1.50;;;22.60;40.90;;;;;;5024276;28;20022;-43
2022/04/07 01:00:20;;;;;;;3.75;2.03;;;22.70;41.10;;;;;;5024370;28;20056;-43
2022/04/07 01:02:46;;;;;;;2.60;1.45;;;22.60;40.90;;;;;;5024501;28;20025;-43
2022/04/07 01:05:12;;;;;;;2.97;1.67;;;22.70;41.10;;;;;;5024699;28;20676;-42
2022/04/07 01:07:39;;;;;;;2.97;1.35;;;22.60;41.20;;;;;;5024381;28;20064;-42
2022/04/07 01:10:09;;;;;;;3.47;1.77;;;22.60;40.90;;;;;;5024163;28;20507;-42
2022/04/07 01:12:35;;;;;;;3.40;1.63;;;22.60;40.80;;;;;;5022801;28;20732;-42
2022/04/07 01:15:04;;;;;;;3.53;1.50;;;22.60;40.90;;;;;;5024071;28;20029;-42
2022/04/07 01:17:31;;;;;;;2.80;1.52;;;22.60;40.80;;;;;;5024595;28;20661;-42
2022/04/07 01:19:56;;;;;;;3.08;1.33;;;22.60;40.80;;;;;;5023820;28;20030;-42
2022/04/07 01:22:23;;;;;;;2.78;1.50;;;22.60;40.90;;;;;;5023842;28;20673;-43
2022/04/07 01:24:49;;;;;;;3.30;1.60;;;22.60;40.80;;;;;;5024092;28;20095;-43
2022/04/07 01:27:17;;;;;;;2.60;1.33;;;22.60;40.90;;;;;;5024154;28;20029;-43
2022/04/07 01:29:44;;;;;;;3.03;1.58;;;22.60;40.80;;;;;;5023994;28;20482;-42
2022/04/07 01:32:38;;;;;;;2.83;1.50;;;22.60;40.80;;;;;;5006442;28;20083;-42
2022/04/07 01:35:04;;;;;;;3.47;1.30;;;22.60;40.80;;;;;;5023781;28;20083;-42
2022/04/07 01:37:30;;;;;;;3.10;1.40;;;22.60;40.70;;;;;;5024414;28;20025;-42
2022/04/07 01:39:59;;;;;;;2.83;1.42;;;22.60;40.80;;;;;;5024412;28;20117;-42
2022/04/07 01:42:25;;;;;;;4.03;1.73;;;22.60;40.80;;;;;;5024118;28;20030;-42
2022/04/07 01:44:57;;;;;;;3.10;1.23;;;22.60;40.80;;;;;;5023945;28;20060;-43
2022/04/07 01:47:23;;;;;;;2.78;1.30;;;22.60;40.80;;;;;;5024232;28;20076;-43
2022/04/07 01:50:00;;;;;;;2.90;1.35;;;22.60;40.80;;;;;;5024936;28;20040;-42
2022/04/07 01:52:27;;;;;;;2.92;1.50;;;22.60;41.50;;;;;;5027905;28;20037;-43
2022/04/07 01:54:53;;;;;;;2.90;1.30;;;22.60;40.80;;;;;;5027544;28;20022;-42
2022/04/07 01:57:23;;;;;;;3.13;1.42;;;22.50;40.70;;;;;;5027458;28;20052;-43
2022/04/07 01:59:53;;;;;;;3.50;1.45;;;22.50;40.60;;;;;;5026384;28;20034;-43
2022/04/07 02:02:21;;;;;;;2.92;1.10;;;22.50;40.70;;;;;;5026443;28;20068;-43
2022/04/07 02:05:03;;;;;;;2.58;1.30;;;22.50;40.70;;;;;;5025750;28;20029;-43
2022/04/07 02:07:30;;;;;;;3.35;1.50;;;22.50;40.80;;;;;;5026492;28;20029;-43
2022/04/07 02:09:56;;;;;;;3.45;1.50;;;22.50;40.70;;;;;;5026468;28;20681;-43
2022/04/07 02:12:23;;;;;;;2.20;1.00;;;22.50;40.70;;;;;;5026553;28;20054;-43
2022/04/07 02:14:49;;;;;;;3.13;1.40;;;22.50;40.80;;;;;;5027871;28;20167;-42
2022/04/07 02:17:22;;;;;;;3.88;1.52;;;22.50;40.80;;;;;;5027202;28;20093;-42
2022/04/07 02:19:59;;;;;;;2.55;1.10;;;22.50;40.80;;;;;;5027695;28;20033;-42
2022/04/07 02:22:28;;;;;;;2.60;1.17;;;22.50;40.60;;;;;;5027134;28;20025;-42
2022/04/07 02:24:55;;;;;;;2.38;1.10;;;22.50;40.70;;;;;;5027578;28;20121;-42
2022/04/07 02:27:21;;;;;;;2.95;1.40;;;22.50;40.70;;;;;;5027696;28;20044;-42
2022/04/07 02:29:47;;;;;;;3.92;1.35;;;22.50;40.70;;;;;;5027491;28;20456;-43
2022/04/07 02:32:13;;;;;;;2.25;1.02;;;22.50;40.70;;;;;;5026912;28;20113;-43
2022/04/07 02:34:39;;;;;;;3.40;1.40;;;22.50;40.60;;;;;;5026227;28;20111;-43
2022/04/07 02:37:05;;;;;;;2.45;1.17;;;22.50;40.70;;;;;;5027194;28;20545;-42
2022/04/07 02:39:30;;;;;;;3.15;1.15;;;22.50;40.70;;;;;;5026465;28;20109;-43
2022/04/07 02:41:56;;;;;;;2.78;1.10;;;22.40;40.50;;;;;;5026991;28;20556;-42
2022/04/07 02:44:22;;;;;;;2.38;0.90;;;22.50;40.70;;;;;;5026755;28;20092;-43
2022/04/07 02:46:48;;;;;;;2.45;1.20;;;22.50;40.60;;;;;;5026865;28;20030;-43
2022/04/07 02:49:14;;;;;;;2.88;1.10;;;22.50;40.60;;;;;;5026318;28;20071;-42
2022/04/07 02:51:39;;;;;;;3.35;1.20;;;22.50;40.70;;;;;;5025741;28;20030;-42
2022/04/07 02:54:05;;;;;;;2.30;1.00;;;22.40;40.60;;;;;;5026650;28;20029;-42
2022/04/07 02:56:31;;;;;;;2.80;1.20;;;22.40;40.70;;;;;;5026587;28;20032;-43
2022/04/07 02:58:57;;;;;;;2.22;0.98;;;22.40;40.60;;;;;;5025944;28;20719;-42
2022/04/07 03:01:24;;;;;;;3.38;1.13;;;22.50;40.60;;;;;;5025094;28;20033;-41
2022/04/07 03:03:50;;;;;;;2.15;0.90;;;22.40;40.60;;;;;;5026160;28;20030;-42
2022/04/07 03:06:16;;;;;;;2.47;1.10;;;22.40;40.40;;;;;;5026143;28;20363;-42
2022/04/07 03:08:43;;;;;;;1.95;0.93;;;22.40;40.40;;;;;;5026441;28;20436;-43
2022/04/07 03:11:09;;;;;;;2.42;1.00;;;22.40;40.50;;;;;;5026514;28;20029;-42
2022/04/07 03:13:38;;;;;;;2.10;1.00;;;22.40;40.40;;;;;;5026708;28;20021;-43
2022/04/07 03:16:05;;;;;;;3.10;1.40;;;22.40;40.50;;;;;;5024821;28;20480;-43
2022/04/07 03:18:31;;;;;;;2.33;1.00;;;22.40;40.50;;;;;;5026613;28;20025;-43
2022/04/07 03:20:57;;;;;;;2.72;0.98;;;22.40;40.40;;;;;;5026486;28;20065;-43
2022/04/07 03:23:23;;;;;;;2.70;1.10;;;22.40;40.50;;;;;;5025885;28;20700;-43
2022/04/07 03:25:49;;;;;;;2.63;0.95;;;22.40;40.40;;;;;;5026643;28;20025;-42
2022/04/07 03:28:15;;;;;;;2.90;1.15;;;22.40;40.50;;;;;;5026367;28;20032;-42
2022/04/07 03:30:40;;;;;;;2.70;1.00;;;22.40;40.40;;;;;;5026224;28;20118;-43
2022/04/07 03:33:06;;;;;;;1.92;0.90;;;22.40;40.40;;;;;;5024540;28;20068;-42
2022/04/07 03:35:33;;;;;;;2.15;0.93;;;22.40;40.50;;;;;;5025939;28;20033;-42
2022/04/07 03:37:59;;;;;;;2.30;0.88;;;22.40;40.50;;;;;;5026250;28;20040;-42
2022/04/07 03:40:25;;;;;;;3.30;1.20;;;22.40;40.40;;;;;;5026204;28;20025;-42
2022/04/07 03:42:52;;;;;;;2.20;1.02;;;22.40;40.50;;;;;;5025499;28;20056;-42
2022/04/07 03:45:18;;;;;;;2.38;0.88;;;22.40;40.40;;;;;;5026046;28;20460;-43
2022/04/07 03:47:44;;;;;;;2.47;1.20;;;22.40;40.50;;;;;;5025974;28;20112;-42
2022/04/07 03:50:10;;;;;;;1.80;0.80;;;22.40;40.40;;;;;;5025752;28;20104;-43
2022/04/07 03:52:36;;;;;;;2.42;0.90;;;22.40;40.40;;;;;;5025354;28;20051;-42
2022/04/07 03:55:03;;;;;;;2.83;1.10;;;22.40;40.40;;;;;;5024255;28;20033;-41
2022/04/07 03:57:29;;;;;;;2.03;1.00;;;22.40;40.40;;;;;;5025837;28;20026;-42
2022/04/07 03:59:55;;;;;;;2.13;0.75;;;22.40;40.40;;;;;;5025664;28;20064;-42
2022/04/07 04:02:21;;;;;;;1.98;0.95;;;22.30;40.50;;;;;;5024662;28;20052;-43
2022/04/07 04:04:46;;;;;;;2.55;0.90;;;22.40;40.50;;;;;;5024324;28;20033;-43
2022/04/07 04:07:12;;;;;;;2.08;0.95;;;22.40;40.50;;;;;;5024340;28;20433;-42
2022/04/07 04:09:38;;;;;;;2.40;0.93;;;22.30;40.50;;;;;;5025318;28;20085;-42
2022/04/07 04:12:04;;;;;;;3.00;1.10;;;22.30;40.50;;;;;;5024431;28;20061;-43
2022/04/07 04:14:30;;;;;;;2.45;1.02;;;22.30;40.50;;;;;;5024430;28;20033;-42
2022/04/07 04:16:56;;;;;;;2.95;1.10;;;22.40;40.70;;;;;;5025412;28;20026;-43
2022/04/07 04:19:21;;;;;;;2.08;0.93;;;22.40;40.80;;;;;;5025001;28;20021;-43
2022/04/07 04:21:47;;;;;;;2.58;1.00;;;22.40;40.90;;;;;;5025070;28;20083;-43
2022/04/07 04:24:13;;;;;;;2.53;0.70;;;22.40;40.90;;;;;;5024797;28;20036;-43
2022/04/07 04:26:39;;;;;;;2.13;0.82;;;22.40;40.90;;;;;;5025051;28;20076;-42
2022/04/07 04:29:05;;;;;;;2.17;0.70;;;22.40;40.90;;;;;;5024832;28;20554;-43
2022/04/07 04:31:30;;;;;;;1.88;0.82;;;22.40;40.90;;;;;;5024114;28;20060;-42
2022/04/07 04:33:56;;;;;;;2.67;1.20;;;22.50;40.90;;;;;;5025263;28;20044;-43
2022/04/07 04:36:22;;;;;;;2.53;0.70;;;22.60;40.90;;;;;;5024802;28;20037;-43
2022/04/07 04:38:48;;;;;;;2.45;0.60;;;22.60;40.80;;;;;;5024909;28;20037;-43
2022/04/07 04:41:15;;;;;;;2.08;0.80;;;22.60;40.70;;;;;;5024402;28;20057;-43
2022/04/07 04:43:41;;;;;;;2.28;0.70;;;22.70;40.70;;;;;;5024839;28;20068;-42
2022/04/07 04:46:07;;;;;;;2.67;0.90;;;22.70;40.60;;;;;;5024562;28;20064;-43
2022/04/07 04:48:34;;;;;;;1.77;0.75;;;22.70;40.50;;;;;;5024313;28;20552;-43
2022/04/07 04:51:00;;;;;;;2.38;0.80;;;22.80;40.40;;;;;;5025020;28;20022;-43
2022/04/07 04:53:25;;;;;;;1.38;0.55;;;22.80;40.30;;;;;;5024315;28;20788;-43
2022/04/07 04:55:51;;;;;;;2.15;0.73;;;22.80;40.20;;;;;;5024527;28;20030;-42
2022/04/07 04:58:17;;;;;;;2.08;0.80;;;22.90;40.20;;;;;;5024373;28;20033;-43
2022/04/07 05:00:43;;;;;;;1.65;0.77;;;22.90;40.10;;;;;;5024151;28;20116;-43
2022/04/07 05:03:09;;;;;;;1.92;0.80;;;22.90;40.10;;;;;;5021424;28;20079;-42
2022/04/07 05:05:35;;;;;;;1.83;0.70;;;22.90;40.00;;;;;;5022679;28;20738;-43
2022/04/07 05:08:01;;;;;;;1.75;0.70;;;23.00;39.90;;;;;;5022369;28;20034;-43
2022/04/07 05:10:27;;;;;;;1.60;0.63;;;23.00;39.90;;;;;;5021203;28;20026;-43
2022/04/07 05:12:53;;;;;;;3.72;0.70;;;23.00;39.90;;;;;;5011935;28;20637;-43
2022/04/07 05:15:19;;;;;;;1.42;0.50;;;23.00;40.90;;;;;;5023264;28;20025;-42
2022/04/07 05:17:49;;;;;;;2.75;0.80;;;23.00;41.00;;;;;;5007716;28;20559;-43
2022/04/07 05:20:15;;;;;;;1.65;0.80;;;23.00;41.00;;;;;;5003211;28;20629;-43
2022/04/07 05:22:41;;;;;;;1.02;0.50;;;23.10;40.80;;;;;;5003205;28;20065;-43
2022/04/07 05:25:08;;;;;;;2.80;0.90;;;23.10;40.90;;;;;;5020949;28;20064;-44
2022/04/07 05:27:36;;;;;;;1.30;0.52;;;23.20;40.80;;;;;;5027147;28;20014;-44
2022/04/07 05:30:12;;;;;;;2.58;0.80;;;23.20;40.80;;;;;;5025393;28;20025;-44
2022/04/07 05:32:39;;;;;;;1.27;0.60;;;23.20;40.90;;;;;;5024586;28;20029;-44
2022/04/07 05:35:05;;;;;;;1.85;0.77;;;23.30;40.80;;;;;;5015950;28;20033;-46
2022/04/07 05:37:31;;;;;;;1.73;0.68;;;23.40;40.60;;;;;;5027302;28;20033;-46
2022/04/07 05:39:57;;;;;;;1.73;0.65;;;23.40;40.50;;;;;;5025213;28;20080;-46
2022/04/07 05:42:23;;;;;;;2.05;0.70;;;23.50;40.60;;;;;;5027800;28;20051;-45
2022/04/07 05:44:48;;;;;;;0.95;0.50;;;23.50;40.60;;;;;;5027803;28;20132;-45
2022/04/07 05:47:14;;;;;;;2.55;0.90;;;23.50;40.70;;;;;;5026071;28;20034;-44
2022/04/07 05:49:40;;;;;;;2.13;0.52;;;23.50;40.60;;;;;;5027991;28;20449;-45
2022/04/07 05:52:06;;;;;;;2.20;0.77;;;23.60;41.00;;;;;;5026369;28;20022;-45
2022/04/07 05:54:32;;;;;;;2.78;0.80;;;23.60;40.60;;;;;;5018822;28;20482;-44
2022/04/07 05:56:58;;;;;;;3.80;1.08;;;23.60;40.60;;;;;;5024623;28;20036;-45
2022/04/07 05:59:24;;;;;;;2.28;0.70;;;23.60;40.60;;;;;;5026541;28;20029;-45
2022/04/07 06:01:50;;;;;;;1.42;0.60;;;23.60;40.20;;;;;;5026562;28;20029;-47
2022/04/07 06:04:16;;;;;;;1.73;0.70;;;23.60;40.00;;;;;;5026120;28;20026;-47
2022/04/07 06:06:42;;;;;;;1.92;0.60;;;23.60;40.00;;;;;;5024655;28;20029;-46
2022/04/07 06:09:08;;;;;;;2.45;0.70;;;23.70;40.10;;;;;;5026181;28;20040;-46
2022/04/07 06:11:34;;;;;;;1.23;0.50;;;23.70;40.00;;;;;;5026071;28;20029;-48
2022/04/07 06:14:00;;;;;;;2.22;0.60;;;23.70;39.90;;;;;;5026138;28;20101;-47
2022/04/07 06:16:26;;;;;;;3.08;0.70;;;23.70;40.80;;;;;;5025702;28;20096;-47
2022/04/07 06:18:52;;;;;;;3.90;0.98;;;23.70;40.90;;;;;;5026094;28;20104;-47
2022/04/07 06:21:19;;;;;;;1.70;0.60;;;23.70;40.70;;;;;;5024158;28;20025;-46
2022/04/07 06:23:45;;;;;;;1.55;0.50;;;23.70;41.00;;;;;;5024812;28;20033;-47
2022/04/07 06:26:11;;;;;;;2.83;0.90;;;23.70;40.70;;;;;;5025307;28;20033;-49
2022/04/07 06:28:36;;;;;;;3.25;0.88;;;23.70;40.90;;;;;;5023072;28;20729;-45
2022/04/07 06:31:03;;;;;;;2.63;0.77;;;23.70;40.70;;;;;;5024297;28;20097;-46
2022/04/07 06:33:28;;;;;;;3.67;0.80;;;23.70;40.10;;;;;;5025523;28;20496;-46
2022/04/07 06:35:54;;;;;;;1.45;0.52;;;23.70;39.90;;;;;;5015678;28;20025;-44
2022/04/07 06:38:20;;;;;;;2.72;0.65;;;23.80;39.80;;;;;;5024572;28;20723;-44
2022/04/07 06:40:45;;;;;;;1.45;0.55;;;23.80;39.70;;;;;;5022918;28;20045;-45
2022/04/07 06:43:11;;;;;;;2.05;0.90;;;23.80;39.50;;;;;;5015426;28;20031;-45
2022/04/07 06:45:37;;;;;;;2.90;0.70;;;23.80;39.40;;;;;;5025695;28;20073;-46
2022/04/07 06:48:03;;;;;;;1.70;0.80;;;23.80;39.40;;;;;;5025611;28;20025;-46
2022/04/07 06:50:31;;;;;;;3.92;0.80;;;23.80;39.20;;;;;;5022217;28;20033;-45
2022/04/07 06:52:57;;;;;;;2.22;0.60;;;23.80;39.20;;;;;;5017401;28;20026;-45
2022/04/07 06:55:24;;;;;;;1.60;0.65;;;23.80;39.20;;;;;;5024959;28;20101;-47
2022/04/07 06:58:01;;;;;;;2.88;0.80;;;23.80;39.10;;;;;;5022231;28;20485;-45
2022/04/07 07:00:30;;;;;;;3.80;0.52;;;23.80;39.10;;;;;;5023896;28;20032;-47
2022/04/07 07:02:58;;;;;;;2.50;0.68;;;23.80;39.00;;;;;;5018521;28;20033;-45
2022/04/07 07:05:29;;;;;;;1.63;0.70;;;23.80;39.00;;;;;;5024317;28;20036;-45
2022/04/07 07:07:55;;;;;;;1.95;0.70;;;23.80;39.00;;;;;;5024887;28;20034;-46
2022/04/07 07:10:25;;;;;;;2.65;0.90;;;23.90;39.20;;;;;;5024317;28;20044;-46
2022/04/07 07:12:52;;;;;;;2.03;0.60;;;23.90;39.30;;;;;;5025214;28;20156;-44
2022/04/07 07:15:21;;;;;;;2.72;0.80;;;23.90;39.40;;;;;;5016195;28;20035;-44
2022/04/07 07:17:47;;;;;;;1.50;0.57;;;23.90;39.50;;;;;;5024804;28;20485;-46
2022/04/07 07:20:13;;;;;;;2.55;0.65;;;23.90;39.80;;;;;;5025456;28;20029;-46
2022/04/07 07:22:41;;;;;;;1.60;0.70;;;23.90;39.80;;;;;;5021677;28;20030;-44
2022/04/07 07:25:08;;;;;;;2.92;0.60;;;23.90;39.80;;;;;;5024745;28;20037;-45
2022/04/07 07:27:41;;;;;;;2.45;0.70;;;23.90;39.70;;;;;;5023618;28;20036;-46
2022/04/07 07:30:11;;;;;;;3.83;1.10;;;23.90;39.70;;;;;;5021312;28;20033;-45
2022/04/07 07:32:38;;;;;;;2.25;0.85;;;23.90;39.70;;;;;;5021787;28;20528;-46
2022/04/07 07:35:04;;;;;;;2.33;0.70;;;23.90;39.60;;;;;;5024137;28;20033;-47
2022/04/07 07:37:30;;;;;;;1.63;0.63;;;23.90;39.60;;;;;;5017589;28;20588;-45
2022/04/07 07:39:56;;;;;;;2.10;0.50;;;23.90;39.50;;;;;;5022748;28;20536;-45
2022/04/07 07:42:22;;;;;;;2.72;0.70;;;23.90;39.50;;;;;;5023605;28;20152;-45
2022/04/07 07:44:48;;;;;;;2.78;0.70;;;23.90;39.70;;;;;;5024061;28;20045;-45
2022/04/07 07:47:14;;;;;;;1.92;0.75;;;23.90;39.40;;;;;;5024591;28;20041;-44
2022/04/07 07:49:40;;;;;;;2.63;0.70;;;23.90;39.20;;;;;;5024669;28;20113;-45
2022/04/07 07:52:06;;;;;;;2.22;0.65;;;23.80;39.10;;;;;;5024247;28;20029;-44
2022/04/07 07:54:32;;;;;;;3.03;0.70;;;23.80;39.20;;;;;;5024401;28;20645;-44
2022/04/07 07:56:57;;;;;;;1.63;0.60;;;23.80;39.10;;;;;;5023852;28;20033;-48
2022/04/07 07:59:24;;;;;;;1.20;0.50;;;23.80;39.00;;;;;;5024917;28;20521;-45
2022/04/07 08:01:49;;;;;;;2.05;0.60;;;23.80;39.00;;;;;;5019707;28;20045;-43
2022/04/07 08:04:15;;;;;;;1.60;0.60;;;23.80;39.00;;;;;;5023766;28;20155;-45
2022/04/07 08:06:44;;;;;;;2.55;0.52;;;23.80;39.00;;;;;;5023096;28;20021;-44
2022/04/07 08:09:10;;;;;;;1.92;0.70;;;23.70;39.00;;;;;;5023597;28;20037;-47
2022/04/07 08:11:36;;;;;;;2.53;0.70;;;23.70;39.00;;;;;;5024426;28;20025;-44
2022/04/07 08:14:02;;;;;;;1.75;0.55;;;23.70;38.90;;;;;;5022775;28;20045;-44
2022/04/07 08:16:30;;;;;;;2.47;0.68;;;23.70;38.90;;;;;;5024657;28;20124;-45
2022/04/07 08:18:56;;;;;;;2.13;0.57;;;23.80;38.90;;;;;;5023647;28;20032;-46
2022/04/07 08:21:22;;;;;;;2.42;0.98;;;23.70;38.90;;;;;;5024828;28;20022;-45
2022/04/07 08:23:48;;;;;;;2.10;0.73;;;23.70;38.90;;;;;;5023943;28;20029;-47
2022/04/07 08:26:14;;;;;;;2.00;0.77;;;23.70;38.90;;;;;;5023212;28;20065;-46
2022/04/07 08:28:40;;;;;;;1.92;0.70;;;23.70;38.80;;;;;;5024372;28;20033;-45
2022/04/07 08:31:05;;;;;;;2.50;0.70;;;23.60;38.80;;;;;;5020939;28;20060;-46
2022/04/07 08:33:31;;;;;;;2.58;0.70;;;23.60;38.80;;;;;;5023046;28;20033;-44
2022/04/07 08:35:57;;;;;;;0.90;0.50;;;23.60;38.80;;;;;;5017532;28;20585;-44
2022/04/07 08:38:22;;;;;;;1.98;0.60;;;23.60;38.80;;;;;;5021218;28;20128;-45
2022/04/07 08:40:51;;;;;;;3.13;0.90;;;23.60;38.80;;;;;;5023176;28;20043;-46
2022/04/07 08:43:19;;;;;;;2.50;0.75;;;23.60;38.90;;;;;;5024023;28;20061;-45
2022/04/07 08:45:45;;;;;;;2.25;0.70;;;23.60;38.90;;;;;;5022789;28;20034;-47
2022/04/07 08:48:12;;;;;;;2.50;0.98;;;23.60;38.90;;;;;;5021647;28;20026;-44
2022/04/07 08:50:40;;;;;;;3.78;0.88;;;23.50;38.90;;;;;;5024253;28;20025;-44
2022/04/07 08:53:06;;;;;;;2.92;0.88;;;23.50;38.90;;;;;;5023105;28;20017;-43
2022/04/07 08:55:33;;;;;;;2.47;0.88;;;23.50;38.90;;;;;;5023534;28;20049;-44
2022/04/07 08:58:00;;;;;;;2.65;0.77;;;23.50;38.90;;;;;;5022846;28;20045;-44
2022/04/07 09:00:26;;;;;;;3.55;0.70;;;23.50;38.90;;;;;;5000629;28;20083;-45
2022/04/07 09:02:53;;;;;;;3.88;1.40;;;23.50;38.90;;;;;;5000260;28;20029;-46
2022/04/07 09:05:25;;;;;;;2.47;1.00;;;23.50;38.80;;;;;;5019081;28;20035;-45
2022/04/07 09:07:55;;;;;;;2.38;0.77;;;23.50;38.80;;;;;;5021491;28;20049;-45
2022/04/07 09:10:22;;;;;;;3.40;1.02;;;23.50;38.90;;;;;;5021964;28;20049;-44
2022/04/07 09:12:50;;;;;;;4.25;1.20;;;23.40;38.80;;;;;;5019837;28;20037;-44
2022/04/07 09:15:16;;;;;;;3.25;1.00;;;23.50;38.90;;;;;;5020536;28;20045;-45
2022/04/07 09:17:52;;;;;;;3.28;1.00;;;23.50;39.00;;;;;;5020900;28;20124;-47
2022/04/07 09:20:19;;;;;;;3.22;1.15;;;23.50;39.00;;;;;;5021145;28;20477;-45
2022/04/07 09:22:45;;;;;;;2.70;0.73;;;23.40;38.90;;;;;;5021043;28;20101;-45
2022/04/07 09:25:12;;;;;;;4.32;1.23;;;23.40;38.90;;;;;;5023113;28;20106;-44
2022/04/07 09:27:41;;;;;;;3.97;1.30;;;23.40;38.90;;;;;;5021822;28;20030;-45
2022/04/07 09:30:12;;;;;;;5.15;1.10;;;23.40;38.90;;;;;;5021621;28;20029;-45
2022/04/07 09:32:43;;;;;;;5.38;1.60;;;23.40;38.90;;;;;;5021615;28;20045;-45
2022/04/07 09:35:09;;;;;;;3.72;1.00;;;23.40;38.90;;;;;;5022235;28;20021;-46
2022/04/07 09:37:36;;;;;;;2.80;1.10;;;23.40;38.80;;;;;;5021338;28;20025;-47
2022/04/07 09:40:16;;;;;;;2.67;1.15;;;23.40;38.90;;;;;;5018813;28;20440;-47
2022/04/07 09:42:42;;;;;;;3.70;1.27;;;23.40;38.90;;;;;;5022612;28;20204;-46
2022/04/07 09:45:12;;;;;;;2.75;0.80;;;23.40;39.10;;;;;;5022427;28;20120;-47
2022/04/07 09:47:41;;;;;;;4.57;1.40;;;23.50;39.30;;;;;;5024090;28;20100;-45
2022/04/07 09:50:18;;;;;;;3.67;1.02;;;23.50;39.40;;;;;;5023334;28;20469;-45
2022/04/07 09:52:58;;;;;;;4.47;1.42;;;23.50;39.50;;;;;;5023124;28;20063;-46
2022/04/07 09:55:36;;;;;;;3.15;0.77;;;23.50;39.50;;;;;;5023164;28;20061;-45
2022/04/07 09:58:04;;;;;;;4.15;1.50;;;23.50;39.50;;;;;;5023645;28;20131;-45
2022/04/07 10:00:30;;;;;;;3.80;1.35;;;23.50;39.50;;;;;;5023353;28;20065;-45
2022/04/07 10:02:58;;;;;;;4.65;1.30;;;23.50;40.10;;;;;;5023705;28;20624;-47
2022/04/07 10:05:24;;;;;;;4.00;1.10;;;23.50;39.50;;;;;;5023295;28;20091;-45
2022/04/07 10:07:50;;;;;;;5.18;1.33;;;23.50;39.50;;;;;;5023065;28;20574;-46
2022/04/07 10:10:18;;;;;;;2.83;0.90;;;23.50;39.50;;;;;;5023650;28;20878;-45
2022/04/07 10:12:46;;;;;;;3.58;0.95;;;23.50;39.60;;;;;;5026082;28;20103;-45
2022/04/07 10:15:12;;;;;;;3.80;1.25;;;23.50;39.50;;;;;;5027268;28;20285;-46
2022/04/07 10:17:38;;;;;;;4.07;1.17;;;23.50;40.20;;;;;;5027409;28;20022;-45
2022/04/07 10:20:08;;;;;;;2.30;0.95;;;23.50;39.50;;;;;;5027095;28;20018;-45
2022/04/07 10:22:47;;;;;;;3.15;1.05;;;23.50;39.50;;;;;;5026860;28;20033;-46
2022/04/07 10:25:15;;;;;;;2.15;0.90;;;23.50;39.50;;;;;;5027082;28;20569;-47
2022/04/07 10:27:52;;;;;;;4.60;1.15;;;23.50;39.50;;;;;;5027238;28;20033;-45
2022/04/07 10:30:18;;;;;;;2.83;0.80;;;23.50;39.50;;;;;;5025404;28;20040;-46
2022/04/07 10:32:46;;;;;;;3.03;0.95;;;23.50;39.50;;;;;;5026900;28;20029;-44
2022/04/07 10:35:35;;;;;;;3.55;1.35;;;23.50;39.50;;;;;;5027243;28;20684;-47
2022/04/07 10:38:06;;;;;;;2.75;1.00;;;23.50;40.10;;;;;;5015040;28;20095;-45
2022/04/07 10:40:49;;;;;;;2.97;0.90;;;23.50;39.40;;;;;;5026593;28;20203;-45
2022/04/07 10:43:18;;;;;;;;;;;23.50;39.40;;;;;;5027528;28;20095;-46
2022/04/07 10:45:47;;;;;;;3.72;1.17;;;23.50;39.40;;;;;;5024917;28;19975;-45
2022/04/07 10:48:24;;;;;;;3.03;0.98;;;23.50;39.40;;;;;;5026805;28;20025;-45
2022/04/07 10:51:04;;;;;;;3.75;0.85;;;23.50;39.40;;;;;;5025651;28;20112;-45
2022/04/07 10:53:35;;;;;;;3.28;0.98;;;23.50;39.40;;;;;;5026165;28;20731;-45
2022/04/07 10:56:07;;;;;;;1.90;0.68;;;23.50;39.40;;;;;;5026660;28;20037;-47
2022/04/07 10:58:43;;;;;;;2.88;1.00;;;23.50;39.30;;;;;;5026492;28;20049;-45
2022/04/07 11:01:29;;;;;;;2.67;0.60;;;23.50;39.30;;;;;;5026281;28;20029;-45
2022/04/07 11:04:16;;;;;;;2.92;0.85;;;23.50;39.30;;;;;;4985070;28;20468;-46
2022/04/07 11:07:02;;;;;;;1.85;0.50;;;23.50;39.30;;;;;;5026158;28;20712;-45
2022/04/07 11:09:53;;;;;;;3.45;1.23;;;23.50;39.30;;;;;;5007550;28;20037;-45
2022/04/07 11:12:30;;;;;;;2.55;0.73;;;23.50;39.30;;;;;;5025366;28;20037;-46
2022/04/07 11:15:01;;;;;;;2.33;0.88;;;23.50;39.20;;;;;;5025935;28;20033;-45
2022/04/07 11:17:37;;;;;;;1.98;0.63;;;23.50;39.30;;;;;;5026213;28;20057;-45
2022/04/07 11:20:08;;;;;;;3.08;1.00;;;23.50;39.20;;;;;;5026055;28;20033;-47
2022/04/07 11:23:02;;;;;;;2.55;0.90;;;23.50;39.20;;;;;;5023964;28;20525;-45
2022/04/07 11:25:46;;;;;;;2.67;0.80;;;23.50;39.20;;;;;;5025714;28;20041;-46
2022/04/07 11:28:14;;;;;;;2.80;0.82;;;23.50;39.30;;;;;;5026023;28;20053;-47
2022/04/07 11:30:50;;;;;;;1.88;0.65;;;23.50;39.20;;;;;;5024357;28;20045;-45
2022/04/07 11:33:20;;;;;;;2.10;0.73;;;23.50;39.30;;;;;;5025675;28;20022;-45
2022/04/07 11:36:02;;;;;;;2.00;0.70;;;23.50;39.30;;;;;;5024505;28;20029;-44
2022/04/07 11:38:29;;;;;;;2.25;0.80;;;23.50;39.40;;;;;;5011100;28;20579;-48
2022/04/07 11:41:18;;;;;;;2.97;0.95;;;23.50;39.20;;;;;;5023884;28;20030;-46
2022/04/07 11:43:49;;;;;;;2.33;0.70;;;23.50;39.30;;;;;;5013022;28;20056;-45
2022/04/07 11:46:24;;;;;;;2.08;0.75;;;23.50;39.30;;;;;;5018306;28;20062;-45
2022/04/07 11:48:50;;;;;;;3.28;0.68;;;23.60;39.50;;;;;;5016115;28;20037;-47
2022/04/07 11:51:18;;;;;;;4.03;0.77;;;23.60;39.60;;;;;;5017879;28;20032;-47
2022/04/07 11:53:52;;;;;;;2.95;0.77;;;23.60;39.60;;;;;;5023852;28;20563;-45
2022/04/07 11:56:27;;;;;;;2.70;0.80;;;23.60;39.60;;;;;;5024940;28;20029;-46
2022/04/07 11:58:56;;;;;;;2.92;1.00;;;23.60;39.50;;;;;;5023178;28;20024;-45
2022/04/07 12:01:23;;;;;;;3.42;0.80;;;23.60;39.50;;;;;;5024697;28;20034;-46
2022/04/07 12:03:57;;;;;;;2.60;0.82;;;23.60;39.40;;;;;;5024844;28;20048;-45
2022/04/07 12:06:29;;;;;;;2.28;0.70;;;23.60;39.40;;;;;;5025392;28;20033;-45
2022/04/07 12:08:56;;;;;;;2.33;0.90;;;23.70;39.40;;;;;;5024591;28;20029;-46
2022/04/07 12:11:23;;;;;;;2.50;0.55;;;23.70;39.50;;;;;;5022392;28;20033;-45
2022/04/07 12:13:53;;;;;;;3.17;0.77;;;23.70;39.50;;;;;;5023799;28;20754;-47
2022/04/07 12:16:22;;;;;;;3.00;1.20;;;23.70;40.00;;;;;;5024646;28;20512;-47
2022/04/07 12:19:04;;;;;;;2.88;0.75;;;23.70;39.40;;;;;;5022978;28;20071;-45
2022/04/07 12:21:49;;;;;;;2.33;0.75;;;23.70;39.40;;;;;;5020225;28;20017;-44
2022/04/07 12:24:14;;;;;;;1.10;0.43;;;23.70;39.40;;;;;;5023059;28;20053;-46
2022/04/07 12:26:41;;;;;;;1.38;0.60;;;23.80;39.40;;;;;;5024275;28;20061;-45
2022/04/07 12:29:07;;;;;;;2.83;0.70;;;23.80;39.50;;;;;;5023347;28;20103;-46
2022/04/07 12:31:33;;;;;;;1.73;0.47;;;23.80;39.40;;;;;;5023458;28;20057;-45
2022/04/07 12:34:12;;;;;;;1.95;0.80;;;23.80;39.40;;;;;;5024071;28;20053;-46
2022/04/07 12:36:39;;;;;;;0.80;0.43;;;23.80;39.40;;;;;;5016142;28;20010;-45
2022/04/07 12:39:10;;;;;;;1.30;0.40;;;23.90;39.50;;;;;;5019863;28;20025;-48
2022/04/07 12:41:40;;;;;;;3.05;0.82;;;23.90;39.40;;;;;;5023384;28;20022;-45
2022/04/07 12:44:10;;;;;;;2.75;0.70;;;23.90;39.40;;;;;;5022781;28;20552;-45
2022/04/07 12:46:46;;;;;;;2.63;0.60;;;24.00;39.40;;;;;;5023990;28;20076;-44
2022/04/07 12:49:12;;;;;;;2.35;0.70;;;23.90;36.50;;;;;;5024000;28;20029;-45
2022/04/07 12:51:39;;;;;;;2.45;0.65;;;24.00;38.30;;;;;;5016444;28;20021;-45
2022/04/07 12:54:06;;;;;;;1.58;0.52;;;24.00;39.00;;;;;;5021382;28;20036;-45